sensor_id;sensor_type;location;lat;lon;timestamp;P1;durP1;ratioP1;P2;durP2;ratioP2
58553;SDS011;48119;53.218;6.576;2023-03-14T00:01:32;26.10;;;6.57;;
58553;SDS011;48119;53.218;6.576;2023-03-14T00:04:06;29.00;;;6.20;;
58553;SDS011;48119;53.218;6.576;2023-03-14T00:06:34;21.67;;;5.90;;
58553;SDS011;48119;53.218;6.576;2023-03-14T00:09:00;17.17;;;5.90;;
58553;SDS011;48119;53.218;6.576;2023-03-14T00:11:26;23.60;;;5.28;;
58553;SDS011;48119;53.218;6.576;2023-03-14T00:13:57;25.85;;;6.15;;
58553;SDS011;48119;53.218;6.576;2023-03-14T00:16:26;17.48;;;5.55;;
58553;SDS011;48119;53.218;6.576;2023-03-14T00:19:02;20.75;;;5.45;;
58553;SDS011;48119;53.218;6.576;2023-03-14T00:21:40;22.80;;;5.75;;
58553;SDS011;48119;53.218;6.576;2023-03-14T00:24:09;14.32;;;4.60;;
58553;SDS011;48119;53.218;6.576;2023-03-14T00:26:37;18.17;;;6.55;;
58553;SDS011;48119;53.218;6.576;2023-03-14T00:29:31;18.85;;;5.72;;
58553;SDS011;48119;53.218;6.576;2023-03-14T00:32:06;26.23;;;6.22;;
58553;SDS011;48119;53.218;6.576;2023-03-14T00:34:32;20.17;;;5.40;;
58553;SDS011;48119;53.218;6.576;2023-03-14T00:36:58;22.40;;;5.50;;
58553;SDS011;48119;53.218;6.576;2023-03-14T00:39:29;27.27;;;5.80;;
58553;SDS011;48119;53.218;6.576;2023-03-14T00:42:01;21.63;;;5.55;;
58553;SDS011;48119;53.218;6.576;2023-03-14T00:44:27;17.98;;;5.45;;
58553;SDS011;48119;53.218;6.576;2023-03-14T00:46:55;15.60;;;4.90;;
58553;SDS011;48119;53.218;6.576;2023-03-14T00:49:24;18.27;;;4.97;;
58553;SDS011;48119;53.218;6.576;2023-03-14T00:51:53;15.90;;;4.57;;
58553;SDS011;48119;53.218;6.576;2023-03-14T00:54:25;15.13;;;4.68;;
58553;SDS011;48119;53.218;6.576;2023-03-14T00:56:51;19.60;;;4.60;;
58553;SDS011;48119;53.218;6.576;2023-03-14T00:59:20;17.15;;;4.20;;
58553;SDS011;48119;53.218;6.576;2023-03-14T01:01:53;18.23;;;5.70;;
58553;SDS011;48119;53.218;6.576;2023-03-14T01:04:29;14.88;;;4.65;;
58553;SDS011;48119;53.218;6.576;2023-03-14T01:07:05;16.65;;;4.68;;
58553;SDS011;48119;53.218;6.576;2023-03-14T01:09:39;14.15;;;4.28;;
58553;SDS011;48119;53.218;6.576;2023-03-14T01:12:10;13.50;;;4.50;;
58553;SDS011;48119;53.218;6.576;2023-03-14T01:14:41;17.42;;;4.38;;
58553;SDS011;48119;53.218;6.576;2023-03-14T01:17:07;12.07;;;4.50;;
58553;SDS011;48119;53.218;6.576;2023-03-14T01:19:42;12.75;;;5.10;;
58553;SDS011;48119;53.218;6.576;2023-03-14T01:22:10;16.92;;;4.75;;
58553;SDS011;48119;53.218;6.576;2023-03-14T01:24:48;19.00;;;4.22;;
58553;SDS011;48119;53.218;6.576;2023-03-14T01:27:23;16.33;;;5.30;;
58553;SDS011;48119;53.218;6.576;2023-03-14T01:29:49;15.88;;;4.70;;
58553;SDS011;48119;53.218;6.576;2023-03-14T01:32:20;15.70;;;4.32;;
58553;SDS011;48119;53.218;6.576;2023-03-14T01:34:51;13.85;;;3.97;;
58553;SDS011;48119;53.218;6.576;2023-03-14T01:37:20;16.90;;;4.45;;
58553;SDS011;48119;53.218;6.576;2023-03-14T01:39:46;14.63;;;3.72;;
58553;SDS011;48119;53.218;6.576;2023-03-14T01:42:17;13.70;;;4.25;;
58553;SDS011;48119;53.218;6.576;2023-03-14T01:44:53;17.00;;;4.43;;
58553;SDS011;48119;53.218;6.576;2023-03-14T01:47:23;11.93;;;3.83;;
58553;SDS011;48119;53.218;6.576;2023-03-14T01:49:53;10.25;;;3.55;;
58553;SDS011;48119;53.218;6.576;2023-03-14T01:52:38;11.97;;;3.67;;
58553;SDS011;48119;53.218;6.576;2023-03-14T01:55:29;14.27;;;3.80;;
58553;SDS011;48119;53.218;6.576;2023-03-14T01:57:57;15.35;;;3.30;;
58553;SDS011;48119;53.218;6.576;2023-03-14T02:00:32;12.98;;;4.13;;
58553;SDS011;48119;53.218;6.576;2023-03-14T02:03:05;15.25;;;4.38;;
58553;SDS011;48119;53.218;6.576;2023-03-14T02:05:52;11.85;;;3.38;;
58553;SDS011;48119;53.218;6.576;2023-03-14T02:08:21;15.15;;;4.63;;
58553;SDS011;48119;53.218;6.576;2023-03-14T02:10:58;17.33;;;4.03;;
58553;SDS011;48119;53.218;6.576;2023-03-14T02:13:24;11.57;;;3.25;;
58553;SDS011;48119;53.218;6.576;2023-03-14T02:15:56;11.70;;;3.80;;
58553;SDS011;48119;53.218;6.576;2023-03-14T02:18:22;16.35;;;3.88;;
58553;SDS011;48119;53.218;6.576;2023-03-14T02:24:04;12.18;;;3.47;;
58553;SDS011;48119;53.218;6.576;2023-03-14T02:26:43;11.30;;;3.08;;
58553;SDS011;48119;53.218;6.576;2023-03-14T02:29:30;15.90;;;3.72;;
58553;SDS011;48119;53.218;6.576;2023-03-14T02:32:03;14.75;;;3.75;;
58553;SDS011;48119;53.218;6.576;2023-03-14T02:34:32;10.15;;;2.58;;
58553;SDS011;48119;53.218;6.576;2023-03-14T02:37:01;8.63;;;2.75;;
58553;SDS011;48119;53.218;6.576;2023-03-14T02:39:35;10.70;;;2.72;;
58553;SDS011;48119;53.218;6.576;2023-03-14T02:42:08;14.50;;;2.95;;
58553;SDS011;48119;53.218;6.576;2023-03-14T02:44:55;10.15;;;2.45;;
58553;SDS011;48119;53.218;6.576;2023-03-14T02:47:52;9.80;;;2.67;;
58553;SDS011;48119;53.218;6.576;2023-03-14T02:50:26;11.10;;;2.58;;
58553;SDS011;48119;53.218;6.576;2023-03-14T02:53:06;11.93;;;3.17;;
58553;SDS011;48119;53.218;6.576;2023-03-14T02:55:37;10.23;;;2.45;;
58553;SDS011;48119;53.218;6.576;2023-03-14T02:58:06;11.00;;;3.05;;
58553;SDS011;48119;53.218;6.576;2023-03-14T03:00:38;13.98;;;2.38;;
58553;SDS011;48119;53.218;6.576;2023-03-14T03:03:06;11.07;;;2.80;;
58553;SDS011;48119;53.218;6.576;2023-03-14T03:05:47;10.48;;;2.53;;
58553;SDS011;48119;53.218;6.576;2023-03-14T03:08:31;9.80;;;2.47;;
58553;SDS011;48119;53.218;6.576;2023-03-14T03:10:58;11.65;;;2.78;;
58553;SDS011;48119;53.218;6.576;2023-03-14T03:13:44;8.68;;;2.72;;
58553;SDS011;48119;53.218;6.576;2023-03-14T03:16:17;9.65;;;2.38;;
58553;SDS011;48119;53.218;6.576;2023-03-14T03:18:43;7.43;;;2.80;;
58553;SDS011;48119;53.218;6.576;2023-03-14T03:21:32;8.10;;;2.22;;
58553;SDS011;48119;53.218;6.576;2023-03-14T03:23:58;10.50;;;3.20;;
58553;SDS011;48119;53.218;6.576;2023-03-14T03:26:24;12.20;;;3.33;;
58553;SDS011;48119;53.218;6.576;2023-03-14T03:29:23;11.02;;;2.47;;
58553;SDS011;48119;53.218;6.576;2023-03-14T03:32:15;12.43;;;2.80;;
58553;SDS011;48119;53.218;6.576;2023-03-14T03:34:49;9.40;;;3.05;;
58553;SDS011;48119;53.218;6.576;2023-03-14T03:37:15;12.68;;;2.63;;
58553;SDS011;48119;53.218;6.576;2023-03-14T03:39:52;10.43;;;2.88;;
58553;SDS011;48119;53.218;6.576;2023-03-14T03:42:18;9.48;;;3.03;;
58553;SDS011;48119;53.218;6.576;2023-03-14T03:44:55;9.35;;;3.47;;
58553;SDS011;48119;53.218;6.576;2023-03-14T03:47:21;11.38;;;2.63;;
58553;SDS011;48119;53.218;6.576;2023-03-14T03:49:50;9.82;;;2.58;;
58553;SDS011;48119;53.218;6.576;2023-03-14T03:52:23;10.65;;;3.63;;
58553;SDS011;48119;53.218;6.576;2023-03-14T03:54:52;8.50;;;2.83;;
58553;SDS011;48119;53.218;6.576;2023-03-14T03:57:25;8.65;;;2.92;;
58553;SDS011;48119;53.218;6.576;2023-03-14T03:59:55;8.30;;;2.88;;
58553;SDS011;48119;53.218;6.576;2023-03-14T04:02:24;12.95;;;3.95;;
58553;SDS011;48119;53.218;6.576;2023-03-14T04:05:00;13.57;;;3.88;;
58553;SDS011;48119;53.218;6.576;2023-03-14T04:07:31;9.43;;;3.00;;
58553;SDS011;48119;53.218;6.576;2023-03-14T04:10:03;11.57;;;3.20;;
58553;SDS011;48119;53.218;6.576;2023-03-14T04:12:32;12.45;;;3.80;;
58553;SDS011;48119;53.218;6.576;2023-03-14T04:15:05;15.05;;;3.30;;
58553;SDS011;48119;53.218;6.576;2023-03-14T04:17:35;10.45;;;3.22;;
58553;SDS011;48119;53.218;6.576;2023-03-14T04:20:10;12.65;;;3.47;;
58553;SDS011;48119;53.218;6.576;2023-03-14T04:22:43;11.45;;;3.40;;
58553;SDS011;48119;53.218;6.576;2023-03-14T04:25:11;15.25;;;4.18;;
58553;SDS011;48119;53.218;6.576;2023-03-14T04:27:47;12.57;;;3.72;;
58553;SDS011;48119;53.218;6.576;2023-03-14T04:30:15;14.15;;;4.38;;
58553;SDS011;48119;53.218;6.576;2023-03-14T04:32:47;15.00;;;3.78;;
58553;SDS011;48119;53.218;6.576;2023-03-14T04:35:19;13.35;;;4.55;;
58553;SDS011;48119;53.218;6.576;2023-03-14T04:37:45;11.38;;;3.40;;
58553;SDS011;48119;53.218;6.576;2023-03-14T04:40:14;12.13;;;4.15;;
58553;SDS011;48119;53.218;6.576;2023-03-14T04:42:45;15.68;;;4.55;;
58553;SDS011;48119;53.218;6.576;2023-03-14T04:48:01;11.52;;;4.28;;
58553;SDS011;48119;53.218;6.576;2023-03-14T04:50:29;10.60;;;4.07;;
58553;SDS011;48119;53.218;6.576;2023-03-14T04:52:57;9.38;;;4.07;;
58553;SDS011;48119;53.218;6.576;2023-03-14T04:55:32;9.77;;;3.85;;
58553;SDS011;48119;53.218;6.576;2023-03-14T04:58:01;16.27;;;4.72;;
58553;SDS011;48119;53.218;6.576;2023-03-14T05:00:37;9.88;;;5.30;;
58553;SDS011;48119;53.218;6.576;2023-03-14T05:03:18;6.63;;;3.42;;
58553;SDS011;48119;53.218;6.576;2023-03-14T05:05:49;13.52;;;5.13;;
58553;SDS011;48119;53.218;6.576;2023-03-14T05:08:31;9.48;;;4.30;;
58553;SDS011;48119;53.218;6.576;2023-03-14T05:11:05;8.30;;;3.88;;
58553;SDS011;48119;53.218;6.576;2023-03-14T05:13:54;9.95;;;3.67;;
58553;SDS011;48119;53.218;6.576;2023-03-14T05:16:22;9.10;;;3.75;;
58553;SDS011;48119;53.218;6.576;2023-03-14T05:18:54;7.97;;;3.55;;
58553;SDS011;48119;53.218;6.576;2023-03-14T05:21:31;12.25;;;4.25;;
58553;SDS011;48119;53.218;6.576;2023-03-14T05:24:00;10.43;;;3.90;;
58553;SDS011;48119;53.218;6.576;2023-03-14T05:26:35;9.32;;;4.32;;
58553;SDS011;48119;53.218;6.576;2023-03-14T05:29:24;8.68;;;3.17;;
58553;SDS011;48119;53.218;6.576;2023-03-14T05:31:54;9.70;;;3.65;;
58553;SDS011;48119;53.218;6.576;2023-03-14T05:34:23;7.03;;;3.30;;
58553;SDS011;48119;53.218;6.576;2023-03-14T05:36:49;10.35;;;4.18;;
58553;SDS011;48119;53.218;6.576;2023-03-14T05:39:16;8.73;;;3.53;;
58553;SDS011;48119;53.218;6.576;2023-03-14T05:41:48;9.20;;;3.47;;
58553;SDS011;48119;53.218;6.576;2023-03-14T05:44:21;7.65;;;3.72;;
58553;SDS011;48119;53.218;6.576;2023-03-14T05:46:50;9.20;;;3.83;;
58553;SDS011;48119;53.218;6.576;2023-03-14T05:49:18;7.85;;;2.90;;
58553;SDS011;48119;53.218;6.576;2023-03-14T05:51:57;7.63;;;2.78;;
58553;SDS011;48119;53.218;6.576;2023-03-14T05:54:30;6.10;;;2.67;;
58553;SDS011;48119;53.218;6.576;2023-03-14T05:56:56;7.28;;;3.28;;
58553;SDS011;48119;53.218;6.576;2023-03-14T05:59:22;8.05;;;2.70;;
58553;SDS011;48119;53.218;6.576;2023-03-14T06:01:48;7.93;;;3.75;;
58553;SDS011;48119;53.218;6.576;2023-03-14T06:04:14;5.30;;;3.20;;
58553;SDS011;48119;53.218;6.576;2023-03-14T06:06:40;7.90;;;2.92;;
58553;SDS011;48119;53.218;6.576;2023-03-14T06:09:06;5.40;;;2.78;;
58553;SDS011;48119;53.218;6.576;2023-03-14T06:11:32;4.28;;;2.20;;
58553;SDS011;48119;53.218;6.576;2023-03-14T06:13:58;4.78;;;2.25;;
58553;SDS011;48119;53.218;6.576;2023-03-14T06:16:34;3.60;;;1.90;;
58553;SDS011;48119;53.218;6.576;2023-03-14T06:19:00;4.50;;;2.00;;
58553;SDS011;48119;53.218;6.576;2023-03-14T06:21:28;5.22;;;2.40;;
58553;SDS011;48119;53.218;6.576;2023-03-14T06:24:01;7.28;;;2.25;;
58553;SDS011;48119;53.218;6.576;2023-03-14T06:26:30;4.93;;;2.15;;
58553;SDS011;48119;53.218;6.576;2023-03-14T06:29:01;4.55;;;1.80;;
58553;SDS011;48119;53.218;6.576;2023-03-14T06:31:41;3.72;;;1.60;;
58553;SDS011;48119;53.218;6.576;2023-03-14T06:34:17;5.45;;;0.75;;
58553;SDS011;48119;53.218;6.576;2023-03-14T06:36:48;4.45;;;0.90;;
58553;SDS011;48119;53.218;6.576;2023-03-14T06:39:14;4.40;;;1.33;;
58553;SDS011;48119;53.218;6.576;2023-03-14T06:41:40;4.60;;;1.75;;
58553;SDS011;48119;53.218;6.576;2023-03-14T06:44:09;12.63;;;2.58;;
58553;SDS011;48119;53.218;6.576;2023-03-14T06:46:37;9.85;;;2.20;;
58553;SDS011;48119;53.218;6.576;2023-03-14T06:49:08;10.75;;;2.25;;
58553;SDS011;48119;53.218;6.576;2023-03-14T06:51:36;11.20;;;3.05;;
58553;SDS011;48119;53.218;6.576;2023-03-14T06:54:05;11.98;;;3.00;;
58553;SDS011;48119;53.218;6.576;2023-03-14T06:56:37;16.67;;;2.55;;
58553;SDS011;48119;53.218;6.576;2023-03-14T06:59:16;8.70;;;2.15;;
58553;SDS011;48119;53.218;6.576;2023-03-14T07:01:54;14.15;;;2.80;;
58553;SDS011;48119;53.218;6.576;2023-03-14T07:04:26;10.88;;;2.15;;
58553;SDS011;48119;53.218;6.576;2023-03-14T07:07:01;9.63;;;2.10;;
58553;SDS011;48119;53.218;6.576;2023-03-14T07:09:30;11.88;;;2.15;;
58553;SDS011;48119;53.218;6.576;2023-03-14T07:11:58;11.50;;;2.17;;
58553;SDS011;48119;53.218;6.576;2023-03-14T07:14:37;8.75;;;1.80;;
58553;SDS011;48119;53.218;6.576;2023-03-14T07:17:12;14.10;;;2.75;;
58553;SDS011;48119;53.218;6.576;2023-03-14T07:19:41;8.55;;;1.40;;
58553;SDS011;48119;53.218;6.576;2023-03-14T07:22:16;4.55;;;1.10;;
58553;SDS011;48119;53.218;6.576;2023-03-14T07:24:42;6.22;;;1.42;;
58553;SDS011;48119;53.218;6.576;2023-03-14T07:27:24;6.40;;;1.83;;
58553;SDS011;48119;53.218;6.576;2023-03-14T07:29:51;6.90;;;1.13;;
58553;SDS011;48119;53.218;6.576;2023-03-14T07:32:22;7.95;;;0.98;;
58553;SDS011;48119;53.218;6.576;2023-03-14T07:34:50;9.75;;;0.88;;
58553;SDS011;48119;53.218;6.576;2023-03-14T07:37:26;4.13;;;0.80;;
58553;SDS011;48119;53.218;6.576;2023-03-14T07:39:52;5.22;;;0.90;;
58553;SDS011;48119;53.218;6.576;2023-03-14T07:42:18;6.22;;;0.90;;
58553;SDS011;48119;53.218;6.576;2023-03-14T07:44:44;3.55;;;0.63;;
58553;SDS011;48119;53.218;6.576;2023-03-14T07:47:10;5.80;;;0.68;;
58553;SDS011;48119;53.218;6.576;2023-03-14T07:49:49;5.05;;;1.02;;
58553;SDS011;48119;53.218;6.576;2023-03-14T07:52:20;4.07;;;1.00;;
58553;SDS011;48119;53.218;6.576;2023-03-14T07:54:55;3.97;;;1.15;;
58553;SDS011;48119;53.218;6.576;2023-03-14T07:57:24;6.60;;;0.95;;
58553;SDS011;48119;53.218;6.576;2023-03-14T07:59:52;5.53;;;0.98;;
58553;SDS011;48119;53.218;6.576;2023-03-14T08:02:18;4.57;;;0.75;;
58553;SDS011;48119;53.218;6.576;2023-03-14T08:04:47;4.45;;;0.98;;
58553;SDS011;48119;53.218;6.576;2023-03-14T08:07:24;3.72;;;0.70;;
58553;SDS011;48119;53.218;6.576;2023-03-14T08:09:50;4.35;;;0.90;;
58553;SDS011;48119;53.218;6.576;2023-03-14T08:12:16;6.05;;;1.02;;
58553;SDS011;48119;53.218;6.576;2023-03-14T08:14:42;4.43;;;1.08;;
58553;SDS011;48119;53.218;6.576;2023-03-14T08:17:08;4.43;;;1.40;;
58553;SDS011;48119;53.218;6.576;2023-03-14T08:19:40;5.68;;;1.08;;
58553;SDS011;48119;53.218;6.576;2023-03-14T08:22:09;4.93;;;0.98;;
58553;SDS011;48119;53.218;6.576;2023-03-14T08:24:38;4.50;;;1.30;;
58553;SDS011;48119;53.218;6.576;2023-03-14T08:27:09;7.20;;;1.35;;
58553;SDS011;48119;53.218;6.576;2023-03-14T08:29:38;6.32;;;1.25;;
58553;SDS011;48119;53.218;6.576;2023-03-14T08:32:07;5.50;;;1.00;;
58553;SDS011;48119;53.218;6.576;2023-03-14T08:34:35;7.82;;;1.10;;
58553;SDS011;48119;53.218;6.576;2023-03-14T08:37:12;3.53;;;1.00;;
58553;SDS011;48119;53.218;6.576;2023-03-14T08:39:41;5.68;;;1.60;;
58553;SDS011;48119;53.218;6.576;2023-03-14T08:42:07;8.45;;;1.83;;
58553;SDS011;48119;53.218;6.576;2023-03-14T08:44:36;7.70;;;1.45;;
58553;SDS011;48119;53.218;6.576;2023-03-14T08:47:04;10.18;;;2.45;;
58553;SDS011;48119;53.218;6.576;2023-03-14T08:49:33;10.15;;;2.53;;
58553;SDS011;48119;53.218;6.576;2023-03-14T08:52:01;13.13;;;2.03;;
58553;SDS011;48119;53.218;6.576;2023-03-14T08:54:39;7.13;;;2.28;;
58553;SDS011;48119;53.218;6.576;2023-03-14T08:57:05;9.98;;;2.55;;
58553;SDS011;48119;53.218;6.576;2023-03-14T08:59:34;9.32;;;2.05;;
58553;SDS011;48119;53.218;6.576;2023-03-14T09:02:01;9.30;;;3.00;;
58553;SDS011;48119;53.218;6.576;2023-03-14T09:04:33;12.57;;;3.72;;
58553;SDS011;48119;53.218;6.576;2023-03-14T09:06:59;10.85;;;3.35;;
58553;SDS011;48119;53.218;6.576;2023-03-14T09:09:28;10.48;;;2.92;;
58553;SDS011;48119;53.218;6.576;2023-03-14T09:11:55;13.13;;;3.30;;
58553;SDS011;48119;53.218;6.576;2023-03-14T09:14:24;17.92;;;3.72;;
58553;SDS011;48119;53.218;6.576;2023-03-14T09:16:49;20.08;;;3.40;;
58553;SDS011;48119;53.218;6.576;2023-03-14T09:19:20;11.25;;;2.83;;
58553;SDS011;48119;53.218;6.576;2023-03-14T09:21:46;20.15;;;4.25;;
58553;SDS011;48119;53.218;6.576;2023-03-14T09:24:12;16.77;;;3.58;;
58553;SDS011;48119;53.218;6.576;2023-03-14T09:26:40;24.33;;;4.35;;
58553;SDS011;48119;53.218;6.576;2023-03-14T09:29:06;18.70;;;3.50;;
58553;SDS011;48119;53.218;6.576;2023-03-14T09:31:34;13.63;;;2.85;;
58553;SDS011;48119;53.218;6.576;2023-03-14T09:34:00;22.08;;;4.57;;
58553;SDS011;48119;53.218;6.576;2023-03-14T09:36:34;16.38;;;3.33;;
58553;SDS011;48119;53.218;6.576;2023-03-14T09:39:00;16.45;;;3.92;;
58553;SDS011;48119;53.218;6.576;2023-03-14T09:41:34;20.13;;;4.22;;
58553;SDS011;48119;53.218;6.576;2023-03-14T09:44:05;19.63;;;4.40;;
58553;SDS011;48119;53.218;6.576;2023-03-14T09:46:35;16.73;;;3.80;;
58553;SDS011;48119;53.218;6.576;2023-03-14T09:49:22;12.80;;;3.10;;
58553;SDS011;48119;53.218;6.576;2023-03-14T09:51:54;20.02;;;3.53;;
58553;SDS011;48119;53.218;6.576;2023-03-14T09:54:37;15.38;;;3.05;;
58553;SDS011;48119;53.218;6.576;2023-03-14T09:57:13;16.65;;;3.38;;
58553;SDS011;48119;53.218;6.576;2023-03-14T09:59:43;17.70;;;3.90;;
58553;SDS011;48119;53.218;6.576;2023-03-14T10:02:22;12.10;;;4.03;;
58553;SDS011;48119;53.218;6.576;2023-03-14T10:04:58;19.88;;;4.45;;
58553;SDS011;48119;53.218;6.576;2023-03-14T10:07:31;17.48;;;3.97;;
58553;SDS011;48119;53.218;6.576;2023-03-14T10:09:57;19.38;;;3.90;;
58553;SDS011;48119;53.218;6.576;2023-03-14T10:12:35;17.42;;;3.92;;
58553;SDS011;48119;53.218;6.576;2023-03-14T10:15:09;13.32;;;3.92;;
58553;SDS011;48119;53.218;6.576;2023-03-14T10:17:54;10.25;;;3.08;;
58553;SDS011;48119;53.218;6.576;2023-03-14T10:23:26;15.88;;;3.88;;
58553;SDS011;48119;53.218;6.576;2023-03-14T10:26:18;18.00;;;3.67;;
58553;SDS011;48119;53.218;6.576;2023-03-14T10:28:59;19.63;;;3.95;;
58553;SDS011;48119;53.218;6.576;2023-03-14T10:32:04;16.33;;;4.25;;
58553;SDS011;48119;53.218;6.576;2023-03-14T10:34:46;10.18;;;3.08;;
58553;SDS011;48119;53.218;6.576;2023-03-14T10:38:01;9.40;;;2.63;;
58553;SDS011;48119;53.218;6.576;2023-03-14T10:40:37;12.70;;;3.95;;
58553;SDS011;48119;53.218;6.576;2023-03-14T10:43:13;8.73;;;2.28;;
58553;SDS011;48119;53.218;6.576;2023-03-14T10:45:56;10.05;;;2.45;;
58553;SDS011;48119;53.218;6.576;2023-03-14T10:48:30;12.18;;;2.58;;
58553;SDS011;48119;53.218;6.576;2023-03-14T10:51:05;8.48;;;2.35;;
58553;SDS011;48119;53.218;6.576;2023-03-14T10:56:21;13.23;;;2.85;;
58553;SDS011;48119;53.218;6.576;2023-03-14T10:58:52;13.05;;;2.55;;
58553;SDS011;48119;53.218;6.576;2023-03-14T11:01:39;11.63;;;2.80;;
58553;SDS011;48119;53.218;6.576;2023-03-14T11:07:43;10.10;;;3.03;;
58553;SDS011;48119;53.218;6.576;2023-03-14T11:10:26;8.98;;;1.98;;
58553;SDS011;48119;53.218;6.576;2023-03-14T11:15:41;6.82;;;2.13;;
58553;SDS011;48119;53.218;6.576;2023-03-14T11:21:46;7.60;;;1.90;;
58553;SDS011;48119;53.218;6.576;2023-03-14T11:27:18;4.40;;;1.70;;
58553;SDS011;48119;53.218;6.576;2023-03-14T11:29:54;5.70;;;1.65;;
58553;SDS011;48119;53.218;6.576;2023-03-14T11:32:41;8.68;;;1.92;;
58553;SDS011;48119;53.218;6.576;2023-03-14T11:35:39;8.82;;;1.50;;
58553;SDS011;48119;53.218;6.576;2023-03-14T11:40:59;9.38;;;1.65;;
58553;SDS011;48119;53.218;6.576;2023-03-14T11:43:32;6.25;;;1.80;;
58553;SDS011;48119;53.218;6.576;2023-03-14T11:46:27;10.52;;;3.90;;
58553;SDS011;48119;53.218;6.576;2023-03-14T11:55:00;8.68;;;2.72;;
58553;SDS011;48119;53.218;6.576;2023-03-14T11:57:32;5.82;;;1.70;;
58553;SDS011;48119;53.218;6.576;2023-03-14T12:02:50;10.00;;;2.08;;
58553;SDS011;48119;53.218;6.576;2023-03-14T12:05:40;8.00;;;2.20;;
58553;SDS011;48119;53.218;6.576;2023-03-14T12:14:14;9.48;;;2.20;;
58553;SDS011;48119;53.218;6.576;2023-03-14T12:16:47;8.65;;;2.75;;
58553;SDS011;48119;53.218;6.576;2023-03-14T12:19:14;5.35;;;1.50;;
58553;SDS011;48119;53.218;6.576;2023-03-14T12:21:51;9.27;;;2.85;;
58553;SDS011;48119;53.218;6.576;2023-03-14T12:24:31;6.78;;;1.70;;
58553;SDS011;48119;53.218;6.576;2023-03-14T12:27:04;9.68;;;2.47;;
58553;SDS011;48119;53.218;6.576;2023-03-14T12:29:34;8.68;;;2.20;;
58553;SDS011;48119;53.218;6.576;2023-03-14T12:32:26;15.45;;;3.22;;
58553;SDS011;48119;53.218;6.576;2023-03-14T12:34:57;11.93;;;3.28;;
58553;SDS011;48119;53.218;6.576;2023-03-14T12:37:52;9.85;;;3.13;;
58553;SDS011;48119;53.218;6.576;2023-03-14T12:40:29;9.95;;;2.22;;
58553;SDS011;48119;53.218;6.576;2023-03-14T12:43:23;10.25;;;2.80;;
58553;SDS011;48119;53.218;6.576;2023-03-14T12:48:45;12.32;;;3.05;;
58553;SDS011;48119;53.218;6.576;2023-03-14T12:51:19;11.45;;;2.42;;
58553;SDS011;48119;53.218;6.576;2023-03-14T12:57:24;9.68;;;2.03;;
58553;SDS011;48119;53.218;6.576;2023-03-14T12:59:58;12.15;;;2.60;;
58553;SDS011;48119;53.218;6.576;2023-03-14T13:02:40;6.90;;;1.65;;
58553;SDS011;48119;53.218;6.576;2023-03-14T13:05:23;9.10;;;2.30;;
58553;SDS011;48119;53.218;6.576;2023-03-14T13:10:45;12.43;;;2.10;;
58553;SDS011;48119;53.218;6.576;2023-03-14T13:13:21;7.90;;;1.55;;
58553;SDS011;48119;53.218;6.576;2023-03-14T13:15:54;5.90;;;1.48;;
58553;SDS011;48119;53.218;6.576;2023-03-14T13:18:42;9.30;;;2.08;;
58553;SDS011;48119;53.218;6.576;2023-03-14T13:21:21;18.83;;;2.50;;
58553;SDS011;48119;53.218;6.576;2023-03-14T13:24:03;12.25;;;2.08;;
58553;SDS011;48119;53.218;6.576;2023-03-14T13:26:41;9.45;;;1.60;;
58553;SDS011;48119;53.218;6.576;2023-03-14T13:29:19;5.75;;;1.45;;
58553;SDS011;48119;53.218;6.576;2023-03-14T13:31:55;15.15;;;1.85;;
58553;SDS011;48119;53.218;6.576;2023-03-14T13:34:32;4.90;;;1.35;;
58553;SDS011;48119;53.218;6.576;2023-03-14T13:37:02;6.28;;;1.65;;
58553;SDS011;48119;53.218;6.576;2023-03-14T13:39:41;7.82;;;1.40;;
58553;SDS011;48119;53.218;6.576;2023-03-14T13:42:14;8.00;;;1.50;;
58553;SDS011;48119;53.218;6.576;2023-03-14T13:44:47;10.25;;;1.48;;
58553;SDS011;48119;53.218;6.576;2023-03-14T13:47:23;5.68;;;1.15;;
58553;SDS011;48119;53.218;6.576;2023-03-14T13:49:55;5.57;;;1.85;;
58553;SDS011;48119;53.218;6.576;2023-03-14T13:54:54;7.28;;;1.85;;
58553;SDS011;48119;53.218;6.576;2023-03-14T13:57:20;5.40;;;1.65;;
58553;SDS011;48119;53.218;6.576;2023-03-14T14:00:00;6.95;;;1.85;;
58553;SDS011;48119;53.218;6.576;2023-03-14T14:02:38;16.17;;;2.92;;
58553;SDS011;48119;53.218;6.576;2023-03-14T14:05:12;9.02;;;1.67;;
58553;SDS011;48119;53.218;6.576;2023-03-14T14:07:44;8.02;;;2.60;;
58553;SDS011;48119;53.218;6.576;2023-03-14T14:10:13;7.15;;;1.98;;
58553;SDS011;48119;53.218;6.576;2023-03-14T14:12:59;7.85;;;1.60;;
58553;SDS011;48119;53.218;6.576;2023-03-14T14:15:31;8.10;;;2.25;;
58553;SDS011;48119;53.218;6.576;2023-03-14T14:18:03;6.40;;;1.42;;
58553;SDS011;48119;53.218;6.576;2023-03-14T14:20:34;5.00;;;1.35;;
58553;SDS011;48119;53.218;6.576;2023-03-14T14:23:12;9.20;;;1.70;;
58553;SDS011;48119;53.218;6.576;2023-03-14T14:25:54;7.65;;;2.33;;
58553;SDS011;48119;53.218;6.576;2023-03-14T14:28:31;7.78;;;1.85;;
58553;SDS011;48119;53.218;6.576;2023-03-14T14:33:42;8.45;;;1.67;;
58553;SDS011;48119;53.218;6.576;2023-03-14T14:36:26;7.35;;;2.53;;
58553;SDS011;48119;53.218;6.576;2023-03-14T14:39:09;8.85;;;1.70;;
58553;SDS011;48119;53.218;6.576;2023-03-14T14:41:42;10.55;;;2.13;;
58553;SDS011;48119;53.218;6.576;2023-03-14T14:44:17;7.32;;;1.63;;
58553;SDS011;48119;53.218;6.576;2023-03-14T14:46:50;6.97;;;1.55;;
58553;SDS011;48119;53.218;6.576;2023-03-14T14:49:20;6.80;;;1.83;;
58553;SDS011;48119;53.218;6.576;2023-03-14T14:51:49;6.15;;;2.00;;
58553;SDS011;48119;53.218;6.576;2023-03-14T14:54:33;8.52;;;2.10;;
58553;SDS011;48119;53.218;6.576;2023-03-14T14:57:03;8.48;;;1.70;;
58553;SDS011;48119;53.218;6.576;2023-03-14T14:59:30;9.82;;;2.50;;
58553;SDS011;48119;53.218;6.576;2023-03-14T15:02:00;7.18;;;2.10;;
58553;SDS011;48119;53.218;6.576;2023-03-14T15:04:31;12.20;;;2.70;;
58553;SDS011;48119;53.218;6.576;2023-03-14T15:07:02;9.93;;;1.60;;
58553;SDS011;48119;53.218;6.576;2023-03-14T15:09:28;6.32;;;2.03;;
58553;SDS011;48119;53.218;6.576;2023-03-14T15:11:54;9.20;;;2.00;;
58553;SDS011;48119;53.218;6.576;2023-03-14T15:14:20;5.03;;;1.52;;
58553;SDS011;48119;53.218;6.576;2023-03-14T15:16:46;5.88;;;1.50;;
58553;SDS011;48119;53.218;6.576;2023-03-14T15:19:19;11.55;;;2.20;;
58553;SDS011;48119;53.218;6.576;2023-03-14T15:21:48;5.00;;;1.35;;
58553;SDS011;48119;53.218;6.576;2023-03-14T15:24:14;5.30;;;1.67;;
58553;SDS011;48119;53.218;6.576;2023-03-14T15:26:43;7.25;;;1.80;;
58553;SDS011;48119;53.218;6.576;2023-03-14T15:29:11;13.38;;;2.08;;
58553;SDS011;48119;53.218;6.576;2023-03-14T15:31:40;9.57;;;1.73;;
58553;SDS011;48119;53.218;6.576;2023-03-14T15:34:09;8.07;;;1.40;;
58553;SDS011;48119;53.218;6.576;2023-03-14T15:36:36;3.97;;;1.20;;
58553;SDS011;48119;53.218;6.576;2023-03-14T15:39:03;8.02;;;1.92;;
58553;SDS011;48119;53.218;6.576;2023-03-14T15:41:37;6.03;;;1.75;;
58553;SDS011;48119;53.218;6.576;2023-03-14T15:44:07;9.00;;;1.52;;
58553;SDS011;48119;53.218;6.576;2023-03-14T15:46:33;8.80;;;1.80;;
58553;SDS011;48119;53.218;6.576;2023-03-14T15:48:59;5.28;;;1.95;;
58553;SDS011;48119;53.218;6.576;2023-03-14T15:51:24;9.43;;;2.20;;
58553;SDS011;48119;53.218;6.576;2023-03-14T15:53:53;7.93;;;2.05;;
58553;SDS011;48119;53.218;6.576;2023-03-14T15:56:27;7.47;;;2.20;;
58553;SDS011;48119;53.218;6.576;2023-03-14T15:58:56;5.43;;;2.08;;
58553;SDS011;48119;53.218;6.576;2023-03-14T16:01:22;5.47;;;1.55;;
58553;SDS011;48119;53.218;6.576;2023-03-14T16:03:48;6.70;;;1.25;;
58553;SDS011;48119;53.218;6.576;2023-03-14T16:06:16;6.10;;;2.33;;
58553;SDS011;48119;53.218;6.576;2023-03-14T16:08:45;6.90;;;1.60;;
58553;SDS011;48119;53.218;6.576;2023-03-14T16:11:11;7.90;;;1.55;;